createdAt,value
2023-02-09T00:00:29.065Z,102689.50
2023-02-09T00:02:58.175Z,102688.63
2023-02-09T00:05:25.957Z,102682.56
2023-02-09T00:07:54.044Z,102683.50
2023-02-09T00:10:21.887Z,102687.94
2023-02-09T00:13:06.925Z,102675.84
2023-02-09T00:15:34.737Z,102685.28
2023-02-09T00:18:03.947Z,102682.50
2023-02-09T00:20:31.763Z,102687.22
2023-02-09T00:22:59.507Z,102676.69
2023-02-09T00:25:27.304Z,102682.97
2023-02-09T00:27:55.179Z,102676.81
2023-02-09T00:30:22.898Z,102673.53
2023-02-09T00:32:50.583Z,102674.53
2023-02-09T00:35:20.453Z,102683.88
2023-02-09T00:37:48.281Z,102676.13
2023-02-09T00:40:16.039Z,102673.44
2023-02-09T00:42:44.005Z,102677.22
2023-02-09T00:45:11.738Z,102675.22
2023-02-09T00:47:39.477Z,102684.28
2023-02-09T00:50:08.529Z,102686.47
2023-02-09T00:52:37.786Z,102683.94
2023-02-09T00:55:06.187Z,102690.16
2023-02-09T00:57:33.891Z,102686.03
2023-02-09T01:00:01.648Z,102680.47
2023-02-09T01:02:29.636Z,102683.13
2023-02-09T01:04:57.434Z,102686.25
2023-02-09T01:07:25.260Z,102682.84
2023-02-09T01:09:54.370Z,102685.34
2023-02-09T01:12:22.171Z,102680.19
2023-02-09T01:14:49.936Z,102681.47
2023-02-09T01:17:17.699Z,102690.47
2023-02-09T01:19:45.448Z,102684.56
2023-02-09T01:22:16.243Z,102685.13
2023-02-09T01:24:44.023Z,102690.50
2023-02-09T01:27:13.142Z,102686.22
2023-02-09T01:29:40.957Z,102692.97
2023-02-09T01:32:09.191Z,102698.16
2023-02-09T01:34:37.207Z,102685.84
2023-02-09T01:37:05.034Z,102692.69
2023-02-09T01:39:33.295Z,102685.69
2023-02-09T01:42:01.111Z,102692.00
2023-02-09T01:45:06.323Z,102688.63
2023-02-09T01:47:39.161Z,102686.84
2023-02-09T01:50:07.469Z,102685.53
2023-02-09T01:52:35.532Z,102675.94
2023-02-09T01:55:07.535Z,102661.88
2023-02-09T01:57:39.292Z,102664.72
2023-02-09T02:00:11.371Z,102660.53
2023-02-09T02:02:40.301Z,102667.13
2023-02-09T02:05:09.554Z,102681.03
2023-02-09T02:07:41.924Z,102674.97
2023-02-09T02:10:10.106Z,102674.31
2023-02-09T02:12:39.364Z,102677.44
2023-02-09T02:15:09.512Z,102686.47
2023-02-09T02:17:55.357Z,102678.19
2023-02-09T02:20:50.846Z,102680.38
2023-02-09T02:23:27.537Z,102681.25
2023-02-09T02:26:29.792Z,102678.69
2023-02-09T02:29:46.039Z,102678.47
2023-02-09T02:32:31.696Z,102676.72
2023-02-09T02:35:05.683Z,102672.25
2023-02-09T02:37:49.720Z,102663.84
2023-02-09T02:40:28.387Z,102667.81
2023-02-09T02:43:02.423Z,102667.44
2023-02-09T02:45:39.617Z,102663.88
2023-02-09T02:48:19.753Z,102665.94
2023-02-09T02:50:54.073Z,102661.03
2023-02-09T02:53:26.438Z,102658.44
2023-02-09T02:55:55.874Z,102655.38
2023-02-09T02:58:26.836Z,102641.75
2023-02-09T03:00:58.996Z,102640.19
2023-02-09T03:03:33.203Z,102642.91
2023-02-09T03:06:04.208Z,102637.63
2023-02-09T03:08:32.075Z,102636.78
2023-02-09T03:11:00.095Z,102640.34
2023-02-09T03:13:40.888Z,102636.78
2023-02-09T03:16:21.578Z,102638.75
2023-02-09T03:19:04.836Z,102640.34
2023-02-09T03:21:43.258Z,102638.94
2023-02-09T03:24:20.663Z,102632.78
2023-02-09T03:26:53.884Z,102637.22
2023-02-09T03:29:24.616Z,102637.03
2023-02-09T03:31:53.236Z,102635.31
2023-02-09T03:34:22.559Z,102628.97
2023-02-09T03:36:53.316Z,102628.41
2023-02-09T03:39:21.101Z,102626.22
2023-02-09T03:41:48.936Z,102620.06
2023-02-09T03:44:28.917Z,102620.91
2023-02-09T03:47:01.405Z,102616.44
2023-02-09T03:49:32.833Z,102615.41
2023-02-09T03:52:01.654Z,102613.38
2023-02-09T03:54:30.048Z,102614.34
2023-02-09T03:56:58.187Z,102620.63
2023-02-09T03:59:26.905Z,102622.16
2023-02-09T04:01:55.346Z,102604.53
2023-02-09T04:04:24.176Z,102605.75
2023-02-09T04:06:54.094Z,102605.34
2023-02-09T04:09:21.878Z,102615.38
2023-02-09T04:11:49.848Z,102622.63
2023-02-09T04:14:18.146Z,102627.41
2023-02-09T04:16:46.064Z,102621.31
2023-02-09T04:19:13.864Z,102624.41
2023-02-09T04:21:41.745Z,102626.38
2023-02-09T04:24:11.443Z,102631.44
2023-02-09T04:26:39.290Z,102634.03
2023-02-09T04:29:07.132Z,102631.31
2023-02-09T04:31:35.998Z,102633.78
2023-02-09T04:34:03.911Z,102628.28
2023-02-09T04:36:31.881Z,102632.75
2023-02-09T04:38:59.609Z,102643.63
2023-02-09T04:41:28.768Z,102641.44
2023-02-09T04:43:56.495Z,102653.03
2023-02-09T04:46:24.391Z,102658.50
2023-02-09T04:48:52.281Z,102664.56
2023-02-09T04:51:20.008Z,102666.25
2023-02-09T04:53:47.806Z,102657.56
2023-02-09T04:56:16.690Z,102669.22
2023-02-09T04:59:03.285Z,102671.28
2023-02-09T05:01:31.718Z,102672.66
2023-02-09T05:03:59.457Z,102689.78
2023-02-09T05:06:27.452Z,102688.09
2023-02-09T05:08:55.164Z,102694.53
2023-02-09T05:11:25.289Z,102693.22
2023-02-09T05:13:54.706Z,102691.50
2023-02-09T05:16:22.523Z,102696.50
2023-02-09T05:18:51.088Z,102694.53
2023-02-09T05:21:18.950Z,102696.63
2023-02-09T05:23:46.795Z,102690.19
2023-02-09T05:26:14.587Z,102691.75
2023-02-09T05:28:42.324Z,102707.19
2023-02-09T05:31:11.549Z,102705.41
2023-02-09T05:33:39.363Z,102713.19
2023-02-09T05:36:09.438Z,102728.50
2023-02-09T05:38:37.697Z,102715.69
2023-02-09T05:41:06.508Z,102720.38
2023-02-09T05:43:34.315Z,102733.94
2023-02-09T05:46:02.106Z,102731.34
2023-02-09T05:48:31.377Z,102730.81
2023-02-09T05:50:59.196Z,102734.56
2023-02-09T05:53:26.942Z,102742.63
2023-02-09T05:55:54.757Z,102746.03
2023-02-09T05:58:22.505Z,102753.00
2023-02-09T06:00:50.222Z,102745.25
2023-02-09T06:03:18.080Z,102751.97
2023-02-09T06:05:47.872Z,102756.97
2023-02-09T06:08:15.833Z,102755.31
2023-02-09T06:10:43.861Z,102757.56
2023-02-09T06:13:11.869Z,102770.75
2023-02-09T06:15:39.738Z,102778.69
2023-02-09T06:18:07.509Z,102762.66
2023-02-09T06:20:35.260Z,102770.56
2023-02-09T06:23:04.483Z,102767.78
2023-02-09T06:25:32.200Z,102778.69
2023-02-09T06:27:59.971Z,102773.03
2023-02-09T06:30:27.783Z,102769.75
2023-02-09T06:32:55.572Z,102764.47
2023-02-09T06:35:23.438Z,102765.19
2023-02-09T06:37:51.145Z,102767.44
2023-02-09T06:40:20.784Z,102769.38
2023-02-09T06:42:48.640Z,102774.88
2023-02-09T06:45:18.031Z,102768.63
2023-02-09T06:47:46.961Z,102779.09
2023-02-09T06:50:18.893Z,102776.06
2023-02-09T06:52:47.269Z,102779.47
2023-02-09T06:55:15.469Z,102779.34
2023-02-09T06:57:44.558Z,102787.56
2023-02-09T07:00:14.041Z,102806.16
2023-02-09T07:02:43.786Z,102795.41
2023-02-09T07:05:11.760Z,102800.72
2023-02-09T07:07:40.138Z,102806.31
2023-02-09T07:10:10.067Z,102811.81
2023-02-09T07:12:40.503Z,102818.94
2023-02-09T07:15:10.760Z,102826.88
2023-02-09T07:17:38.635Z,102817.22
2023-02-09T07:20:07.608Z,102822.50
2023-02-09T07:22:35.396Z,102823.88
2023-02-09T07:25:03.288Z,102822.44
2023-02-09T07:27:33.309Z,102821.34
2023-02-09T07:30:01.435Z,102827.47
2023-02-09T07:32:30.902Z,102832.28
2023-02-09T07:34:59.411Z,102830.66
2023-02-09T07:37:27.143Z,102836.16
2023-02-09T07:39:55.120Z,102836.31
2023-02-09T07:42:23.464Z,102844.13
2023-02-09T07:44:51.299Z,102841.66
2023-02-09T07:47:19.073Z,102840.09
2023-02-09T07:49:48.155Z,102848.19
2023-02-09T07:52:15.923Z,102838.47
2023-02-09T07:54:43.764Z,102846.28
2023-02-09T07:57:13.600Z,102852.28
2023-02-09T07:59:41.449Z,102846.22
2023-02-09T08:02:19.026Z,102850.22
2023-02-09T08:04:48.213Z,102848.75
2023-02-09T08:07:16.061Z,102859.38
2023-02-09T08:09:45.105Z,102855.16
2023-02-09T08:12:13.149Z,102864.19
2023-02-09T08:14:48.039Z,102865.91
2023-02-09T08:17:24.241Z,102863.44
2023-02-09T08:19:55.706Z,102862.94
2023-02-09T08:22:26.014Z,102871.09
2023-02-09T08:24:54.546Z,102866.56
2023-02-09T08:27:23.244Z,102872.09
2023-02-09T08:29:51.046Z,102873.28
2023-02-09T08:32:18.902Z,102872.50
2023-02-09T08:34:46.700Z,102881.00
2023-02-09T08:37:16.041Z,102878.94
2023-02-09T08:39:45.124Z,102881.88
2023-02-09T08:42:12.998Z,102881.19
2023-02-09T08:44:40.785Z,102891.66
2023-02-09T08:47:08.633Z,102880.16
2023-02-09T08:49:37.158Z,102883.69
2023-02-09T08:52:05.287Z,102888.13
2023-02-09T08:54:34.353Z,102886.59
2023-02-09T08:57:02.660Z,102888.16
2023-02-09T08:59:30.568Z,102892.41
2023-02-09T09:01:58.286Z,102891.41
2023-02-09T09:04:26.091Z,102903.09
2023-02-09T09:06:54.857Z,102900.59
2023-02-09T09:09:22.578Z,102899.84
2023-02-09T09:11:51.817Z,102895.59
2023-02-09T09:14:19.508Z,102893.94
2023-02-09T09:16:47.376Z,102895.75
2023-02-09T09:19:15.265Z,102890.59
2023-02-09T09:21:43.064Z,102896.03
2023-02-09T09:24:10.818Z,102894.28
2023-02-09T09:26:38.584Z,102901.34
2023-02-09T09:29:07.759Z,102910.16
2023-02-09T09:31:37.160Z,102901.28
2023-02-09T09:34:05.056Z,102891.88
2023-02-09T09:36:32.811Z,102897.19
2023-02-09T09:39:00.611Z,102895.53
2023-02-09T09:41:32.780Z,102901.78
2023-02-09T09:44:02.112Z,102901.97
2023-02-09T09:46:37.867Z,102911.00
2023-02-09T09:49:06.602Z,102914.69
2023-02-09T09:51:40.564Z,102923.59
2023-02-09T09:54:15.202Z,102931.75
2023-02-09T09:56:43.079Z,102927.38
2023-02-09T09:59:17.674Z,102932.91
2023-02-09T10:01:48.306Z,102940.06
2023-02-09T10:04:17.254Z,102939.25
2023-02-09T10:06:47.358Z,102939.22
2023-02-09T10:09:26.089Z,102940.09
2023-02-09T10:12:02.040Z,102941.84
2023-02-09T10:14:29.872Z,102942.78
2023-02-09T10:16:59.093Z,102954.28
2023-02-09T10:19:29.305Z,102949.81
2023-02-09T10:21:57.713Z,102943.56
2023-02-09T10:24:27.333Z,102947.91
2023-02-09T10:27:08.689Z,102943.44
2023-02-09T10:29:36.960Z,102939.94
2023-02-09T10:32:14.571Z,102947.06
2023-02-09T10:34:46.139Z,102959.50
2023-02-09T10:37:27.369Z,102952.38
2023-02-09T10:40:01.734Z,102953.28
2023-02-09T10:42:31.527Z,102955.06
2023-02-09T10:45:07.821Z,102961.25
2023-02-09T10:47:37.036Z,102964.78
2023-02-09T10:50:17.130Z,102956.78
2023-02-09T10:52:56.735Z,102967.41
2023-02-09T10:55:29.506Z,102972.75
2023-02-09T10:58:25.905Z,102970.94
2023-02-09T11:01:01.925Z,102978.94
2023-02-09T11:03:31.153Z,102970.88
2023-02-09T11:06:02.363Z,102971.84
2023-02-09T11:08:41.360Z,102971.78
2023-02-09T11:11:25.925Z,102971.81
2023-02-09T11:13:54.087Z,102978.91
2023-02-09T11:16:46.855Z,102962.84
2023-02-09T11:19:31.320Z,102962.75
2023-02-09T11:22:11.835Z,102957.25
2023-02-09T11:24:53.104Z,102961.00
2023-02-09T11:27:37.486Z,102951.91
2023-02-09T11:30:17.455Z,102951.78
2023-02-09T11:32:51.179Z,102950.91
2023-02-09T11:35:23.415Z,102948.91
2023-02-09T11:37:57.680Z,102955.16
2023-02-09T11:40:29.583Z,102957.75
2023-02-09T11:43:06.929Z,102955.13
2023-02-09T11:45:40.219Z,102958.47
2023-02-09T11:48:12.358Z,102946.75
2023-02-09T11:50:52.703Z,102946.72
2023-02-09T11:53:29.070Z,102928.75
2023-02-09T11:55:59.637Z,102928.75
2023-02-09T11:58:53.275Z,102920.69
2023-02-09T12:01:30.866Z,102917.31
2023-02-09T12:04:06.228Z,102912.59
2023-02-09T12:06:40.903Z,102925.50
2023-02-09T12:09:21.174Z,102921.72
2023-02-09T12:11:58.720Z,102926.94
2023-02-09T12:14:57.255Z,102924.97
2023-02-09T12:17:31.544Z,102931.84
2023-02-09T12:20:01.383Z,102917.03
2023-02-09T12:22:49.184Z,102923.63
2023-02-09T12:25:46.171Z,102911.63
2023-02-09T12:28:38.652Z,102908.25
2023-02-09T12:31:16.305Z,102909.59
2023-02-09T12:34:10.429Z,102908.84
2023-02-09T12:36:38.436Z,102911.41
2023-02-09T12:39:24.273Z,102908.75
2023-02-09T12:42:26.631Z,102913.50
2023-02-09T12:45:00.574Z,102911.19
2023-02-09T12:47:46.216Z,102900.69
2023-02-09T12:50:24.552Z,102896.91
2023-02-09T12:53:29.825Z,102893.97
2023-02-09T12:56:05.248Z,102888.16
2023-02-09T12:58:39.178Z,102893.44
2023-02-09T13:01:07.858Z,102889.91
2023-02-09T13:03:45.169Z,102898.28
2023-02-09T13:06:27.567Z,102897.78
2023-02-09T13:08:58.393Z,102898.38
2023-02-09T13:11:33.333Z,102903.81
2023-02-09T13:14:05.943Z,102894.94
2023-02-09T13:16:50.851Z,102894.13
2023-02-09T13:19:45.989Z,102897.78
2023-02-09T13:22:27.905Z,102891.31
2023-02-09T13:25:00.385Z,102893.88
2023-02-09T13:27:30.575Z,102895.72
2023-02-09T13:30:00.151Z,102895.00
2023-02-09T13:32:36.845Z,102890.19
2023-02-09T13:35:15.791Z,102883.75
2023-02-09T13:37:47.662Z,102888.81
2023-02-09T13:40:18.957Z,102886.50
2023-02-09T13:42:57.976Z,102886.34
2023-02-09T13:45:28.037Z,102897.00
2023-02-09T13:47:57.161Z,102896.34
2023-02-09T13:50:28.206Z,102897.63
2023-02-09T13:53:08.063Z,102900.09
2023-02-09T13:55:39.691Z,102897.78
2023-02-09T13:58:15.323Z,102900.25
2023-02-09T14:00:46.595Z,102891.84
2023-02-09T14:03:19.318Z,102900.56
2023-02-09T14:05:52.835Z,102893.97
2023-02-09T14:08:22.273Z,102906.19
2023-02-09T14:10:56.554Z,102903.56
2023-02-09T14:13:30.950Z,102892.66
2023-02-09T14:16:07.860Z,102901.13
2023-02-09T14:18:50.732Z,102890.41
2023-02-09T14:21:25.066Z,102894.28
2023-02-09T14:24:21.502Z,102902.19
2023-02-09T14:26:52.537Z,102903.53
2023-02-09T14:29:25.201Z,102895.25
2023-02-09T14:31:54.422Z,102889.03
2023-02-09T14:34:37.594Z,102889.06
2023-02-09T14:37:29.278Z,102893.47
2023-02-09T14:40:01.006Z,102899.03
2023-02-09T14:42:30.659Z,102903.72
2023-02-09T14:45:02.744Z,102908.31
2023-02-09T14:47:38.434Z,102907.38
2023-02-09T14:50:07.835Z,102906.22
2023-02-09T14:52:38.869Z,102911.56
2023-02-09T14:55:12.538Z,102913.13
2023-02-09T14:57:40.231Z,102910.91
2023-02-09T15:00:21.939Z,102911.13
2023-02-09T15:02:50.694Z,102907.31
2023-02-09T15:05:19.188Z,102909.97
2023-02-09T15:07:49.328Z,102914.88
2023-02-09T15:10:27.788Z,102915.47
2023-02-09T15:12:56.057Z,102918.09
2023-02-09T15:15:26.259Z,102928.03
2023-02-09T15:17:55.278Z,102919.38
2023-02-09T15:20:25.403Z,102924.44
2023-02-09T15:22:53.690Z,102919.69
2023-02-09T15:25:22.641Z,102925.41
2023-02-09T15:27:52.512Z,102928.09
2023-02-09T15:30:22.528Z,102930.88
2023-02-09T15:32:51.851Z,102939.13
2023-02-09T15:35:21.724Z,102940.44
2023-02-09T15:37:53.271Z,102938.13
2023-02-09T15:40:45.013Z,102934.81
2023-02-09T15:43:29.259Z,102939.34
2023-02-09T15:46:14.931Z,102948.91
2023-02-09T15:48:44.488Z,102947.91
2023-02-09T15:51:12.407Z,102952.38
2023-02-09T15:53:40.474Z,102960.88
2023-02-09T15:56:09.204Z,102962.69
2023-02-09T15:58:40.319Z,102963.09
2023-02-09T16:01:08.036Z,102967.00
2023-02-09T16:03:36.095Z,102960.88
2023-02-09T16:06:12.809Z,102968.34
2023-02-09T16:08:40.635Z,102972.91
2023-02-09T16:11:17.729Z,102971.09
2023-02-09T16:13:45.489Z,102973.88
2023-02-09T16:16:17.271Z,102976.56
2023-02-09T16:18:45.909Z,102958.94
2023-02-09T16:21:21.028Z,102959.03
2023-02-09T16:23:49.078Z,102967.97
2023-02-09T16:26:16.921Z,102972.47
2023-02-09T16:28:44.627Z,102973.16
2023-02-09T16:31:12.393Z,102978.38
2023-02-09T16:33:41.644Z,102985.56
2023-02-09T16:36:17.016Z,102988.25
2023-02-09T16:38:44.830Z,102987.44
2023-02-09T16:41:39.711Z,102984.09
2023-02-09T16:44:16.909Z,102991.38
2023-02-09T16:46:46.950Z,103001.22
2023-02-09T16:49:30.789Z,102999.50
2023-02-09T16:52:02.238Z,103003.09
2023-02-09T16:54:32.020Z,103009.38
2023-02-09T16:57:00.856Z,103001.44
2023-02-09T16:59:28.912Z,103008.53
2023-02-09T17:01:59.796Z,103012.13
2023-02-09T17:04:27.775Z,103027.25
2023-02-09T17:06:55.875Z,103022.94
2023-02-09T17:09:24.957Z,103023.88
2023-02-09T17:11:52.704Z,103033.75
2023-02-09T17:14:20.463Z,103032.06
2023-02-09T17:16:49.662Z,103033.94
2023-02-09T17:19:19.094Z,103042.91
2023-02-09T17:21:46.931Z,103043.84
2023-02-09T17:24:17.460Z,103053.78
2023-02-09T17:26:46.700Z,103048.47
2023-02-09T17:29:14.501Z,103054.78
2023-02-09T17:31:52.951Z,103053.00
2023-02-09T17:34:26.896Z,103055.69
2023-02-09T17:36:54.766Z,103060.19
2023-02-09T17:39:22.465Z,103059.34
2023-02-09T17:41:51.710Z,103062.03
2023-02-09T17:44:32.105Z,103063.78
2023-02-09T17:47:07.358Z,103058.50
2023-02-09T17:49:35.229Z,103056.63
2023-02-09T17:52:03.021Z,103059.28
2023-02-09T17:54:32.498Z,103061.94
2023-02-09T17:57:01.641Z,103063.72
2023-02-09T17:59:29.557Z,103075.38
2023-02-09T18:01:58.799Z,103072.81
2023-02-09T18:04:27.259Z,103080.78
2023-02-09T18:06:57.670Z,103079.00
2023-02-09T18:09:25.639Z,103080.81
2023-02-09T18:11:59.748Z,103090.56
2023-02-09T18:14:30.421Z,103086.06
2023-02-09T18:16:58.480Z,103090.56
2023-02-09T18:19:26.883Z,103092.34
2023-02-09T18:21:58.679Z,103088.88
2023-02-09T18:24:28.373Z,103102.38
2023-02-09T18:26:56.884Z,103100.75
2023-02-09T18:29:29.089Z,103096.34
2023-02-09T18:31:59.953Z,103097.25
2023-02-09T18:34:28.118Z,103093.69
2023-02-09T18:36:56.004Z,103092.81
2023-02-09T18:39:23.732Z,103103.47
2023-02-09T18:41:54.214Z,103098.06
2023-02-09T18:44:24.544Z,103101.59
2023-02-09T18:46:52.380Z,103091.69
2023-02-09T18:49:21.636Z,103092.50
2023-02-09T18:51:49.734Z,103091.66
2023-02-09T18:54:17.429Z,103096.97
2023-02-09T18:56:45.244Z,103103.25
2023-02-09T18:59:13.066Z,103101.50
2023-02-09T19:01:41.123Z,103104.19
2023-02-09T19:04:09.024Z,103106.06
2023-02-09T19:06:38.694Z,103110.53
2023-02-09T19:09:06.460Z,103108.81
2023-02-09T19:11:34.398Z,103112.34
2023-02-09T19:14:20.003Z,103109.66
2023-02-09T19:16:47.853Z,103114.22
2023-02-09T19:19:16.095Z,103124.09
2023-02-09T19:21:45.185Z,103124.16
2023-02-09T19:24:13.336Z,103124.31
2023-02-09T19:26:41.083Z,103123.66
2023-02-09T19:29:08.855Z,103136.88
2023-02-09T19:31:36.637Z,103143.09
2023-02-09T19:34:04.474Z,103144.75
2023-02-09T19:36:32.289Z,103142.00
2023-02-09T19:39:02.151Z,103140.16
2023-02-09T19:41:30.152Z,103149.94
2023-02-09T19:43:58.844Z,103151.00
2023-02-09T19:46:27.052Z,103153.66
2023-02-09T19:48:54.840Z,103153.72
2023-02-09T19:51:23.187Z,103158.13
2023-02-09T19:53:51.307Z,103155.41
2023-02-09T19:56:23.292Z,103161.66
2023-02-09T19:58:51.781Z,103160.78
2023-02-09T20:01:20.042Z,103165.25
2023-02-09T20:03:49.421Z,103169.63
2023-02-09T20:06:17.807Z,103172.25
2023-02-09T20:08:45.625Z,103162.47
2023-02-09T20:11:16.656Z,103174.09
2023-02-09T20:13:46.240Z,103175.88
2023-02-09T20:16:19.580Z,103181.31
2023-02-09T20:18:48.701Z,103191.16
2023-02-09T20:21:17.997Z,103183.16
2023-02-09T20:23:46.804Z,103187.47
2023-02-09T20:26:16.446Z,103185.72
2023-02-09T20:28:45.648Z,103183.19
2023-02-09T20:31:15.658Z,103176.03
2023-02-09T20:33:43.713Z,103183.16
2023-02-09T20:36:11.607Z,103192.25
2023-02-09T20:38:39.458Z,103182.59
2023-02-09T20:41:09.402Z,103185.06
2023-02-09T20:43:55.211Z,103209.03
2023-02-09T20:46:55.497Z,103218.72
2023-02-09T20:49:25.765Z,103217.94
2023-02-09T20:51:53.636Z,103219.69
2023-02-09T20:54:21.467Z,103212.56
2023-02-09T20:56:49.261Z,103213.44
2023-02-09T20:59:17.533Z,103217.94
2023-02-09T21:01:47.926Z,103230.44
2023-02-09T21:04:15.694Z,103222.38
2023-02-09T21:06:43.768Z,103220.56
2023-02-09T21:09:14.289Z,103226.78
2023-02-09T21:11:42.845Z,103236.53
2023-02-09T21:14:21.738Z,103238.28
2023-02-09T21:16:57.308Z,103233.78
2023-02-09T21:19:25.945Z,103234.91
2023-02-09T21:21:53.846Z,103234.91
2023-02-09T21:24:21.707Z,103227.75
2023-02-09T21:26:49.623Z,103227.75
2023-02-09T21:29:17.376Z,103222.38
2023-02-09T21:31:45.823Z,103237.56
2023-02-09T21:34:16.089Z,103239.38
2023-02-09T21:36:45.576Z,103246.47
2023-02-09T21:39:13.893Z,103240.25
2023-02-09T21:41:59.461Z,103241.16
2023-02-09T21:44:27.340Z,103244.66
2023-02-09T21:46:55.114Z,103246.38
2023-02-09T21:49:24.682Z,103252.59
2023-02-09T21:51:52.527Z,103246.34
2023-02-09T21:54:20.244Z,103252.59
2023-02-09T21:56:48.073Z,103247.28
2023-02-09T21:59:15.832Z,103249.00
2023-02-09T22:01:43.748Z,103245.41
2023-02-09T22:04:11.896Z,103255.19
2023-02-09T22:06:41.687Z,103248.06
2023-02-09T22:09:09.638Z,103256.97
2023-02-09T22:11:37.430Z,103241.88
2023-02-09T22:14:05.404Z,103246.34
2023-02-09T22:16:33.382Z,103257.03
2023-02-09T22:19:01.290Z,103257.09
2023-02-09T22:21:29.079Z,103255.38
2023-02-09T22:23:58.266Z,103259.78
2023-02-09T22:26:26.024Z,103262.47
2023-02-09T22:28:53.747Z,103258.00
2023-02-09T22:31:22.621Z,103258.88
2023-02-09T22:33:54.256Z,103257.09
2023-02-09T22:36:23.304Z,103252.66
2023-02-09T22:38:51.540Z,103258.91
2023-02-09T22:41:23.248Z,103244.69
2023-02-09T22:43:52.271Z,103232.25
2023-02-09T22:46:20.963Z,103242.88
2023-02-09T22:48:52.342Z,103240.13
2023-02-09T22:51:20.833Z,103236.59
2023-02-09T22:53:49.248Z,103239.22
2023-02-09T22:56:17.592Z,103249.94
2023-02-09T22:58:46.730Z,103236.63
2023-02-09T23:01:14.756Z,103244.69
2023-02-09T23:03:42.857Z,103243.81
2023-02-09T23:06:13.814Z,103241.13
2023-02-09T23:08:41.597Z,103240.25
2023-02-09T23:11:11.570Z,103239.38
2023-02-09T23:13:40.130Z,103243.81
2023-02-09T23:16:15.192Z,103253.56
2023-02-09T23:18:48.208Z,103252.69
2023-02-09T23:21:17.783Z,103256.25
2023-02-09T23:23:45.774Z,103257.19
2023-02-09T23:26:14.596Z,103257.19
2023-02-09T23:28:42.557Z,103264.25
2023-02-09T23:31:14.860Z,103267.75
2023-02-09T23:33:43.004Z,103269.56
2023-02-09T23:36:12.865Z,103276.66
2023-02-09T23:38:40.930Z,103271.31
2023-02-09T23:41:09.718Z,103274.81
2023-02-09T23:43:37.958Z,103273.09
2023-02-09T23:46:08.901Z,103265.16
2023-02-09T23:48:38.092Z,103269.66
2023-02-09T23:51:07.822Z,103267.84
2023-02-09T23:53:36.559Z,103266.09
2023-02-09T23:56:04.892Z,103266.06
2023-02-09T23:58:32.928Z,103276.69
